sensor_id;sensor_type;location;lat;lon;timestamp;temperature;humidity
29731;DHT22;16639;51.488;0.152;2023-07-28T00:02:21;18.70;99.90
29731;DHT22;16639;51.488;0.152;2023-07-28T00:04:49;19.50;99.90
29731;DHT22;16639;51.488;0.152;2023-07-28T00:07:17;18.70;99.90
29731;DHT22;16639;51.488;0.152;2023-07-28T00:09:44;18.70;99.90
29731;DHT22;16639;51.488;0.152;2023-07-28T00:12:12;18.70;99.90
29731;DHT22;16639;51.488;0.152;2023-07-28T00:14:39;18.70;99.90
29731;DHT22;16639;51.488;0.152;2023-07-28T00:17:07;18.70;99.90
29731;DHT22;16639;51.488;0.152;2023-07-28T00:19:34;18.60;99.90
29731;DHT22;16639;51.488;0.152;2023-07-28T00:22:02;18.60;99.90
29731;DHT22;16639;51.488;0.152;2023-07-28T00:24:29;18.60;99.90
29731;DHT22;16639;51.488;0.152;2023-07-28T00:26:57;18.70;99.90
29731;DHT22;16639;51.488;0.152;2023-07-28T00:29:24;18.70;99.90
29731;DHT22;16639;51.488;0.152;2023-07-28T00:31:52;18.70;99.90
29731;DHT22;16639;51.488;0.152;2023-07-28T00:34:20;18.70;99.90
29731;DHT22;16639;51.488;0.152;2023-07-28T00:36:48;18.70;99.90
29731;DHT22;16639;51.488;0.152;2023-07-28T00:39:15;18.70;99.90
29731;DHT22;16639;51.488;0.152;2023-07-28T00:41:43;18.70;99.90
29731;DHT22;16639;51.488;0.152;2023-07-28T00:44:10;18.70;99.90
29731;DHT22;16639;51.488;0.152;2023-07-28T00:46:37;18.80;99.90
29731;DHT22;16639;51.488;0.152;2023-07-28T00:49:05;18.80;99.90
29731;DHT22;16639;51.488;0.152;2023-07-28T00:51:33;18.80;99.90
29731;DHT22;16639;51.488;0.152;2023-07-28T00:54:03;18.80;99.90
29731;DHT22;16639;51.488;0.152;2023-07-28T00:56:32;19.40;99.90
29731;DHT22;16639;51.488;0.152;2023-07-28T00:59:00;18.80;99.90
29731;DHT22;16639;51.488;0.152;2023-07-28T01:01:28;18.70;99.90
29731;DHT22;16639;51.488;0.152;2023-07-28T01:03:56;18.80;99.90
29731;DHT22;16639;51.488;0.152;2023-07-28T01:06:44;18.80;99.90
29731;DHT22;16639;51.488;0.152;2023-07-28T01:09:17;18.80;99.90
29731;DHT22;16639;51.488;0.152;2023-07-28T01:12:01;18.80;99.90
29731;DHT22;16639;51.488;0.152;2023-07-28T01:14:34;18.80;99.90
29731;DHT22;16639;51.488;0.152;2023-07-28T01:17:01;18.50;99.90
29731;DHT22;16639;51.488;0.152;2023-07-28T01:19:29;18.80;99.90
29731;DHT22;16639;51.488;0.152;2023-07-28T01:25:12;18.80;99.90
29731;DHT22;16639;51.488;0.152;2023-07-28T01:27:43;18.80;99.90
29731;DHT22;16639;51.488;0.152;2023-07-28T01:30:11;18.80;99.90
29731;DHT22;16639;51.488;0.152;2023-07-28T01:32:39;18.80;99.90
29731;DHT22;16639;51.488;0.152;2023-07-28T01:35:06;18.80;99.90
29731;DHT22;16639;51.488;0.152;2023-07-28T01:37:36;18.80;99.90
29731;DHT22;16639;51.488;0.152;2023-07-28T01:40:04;18.80;99.90
29731;DHT22;16639;51.488;0.152;2023-07-28T01:42:32;18.80;99.90
29731;DHT22;16639;51.488;0.152;2023-07-28T01:44:59;18.70;99.90
29731;DHT22;16639;51.488;0.152;2023-07-28T01:47:27;18.80;99.90
29731;DHT22;16639;51.488;0.152;2023-07-28T01:49:55;18.80;99.90
29731;DHT22;16639;51.488;0.152;2023-07-28T01:52:22;18.80;99.90
29731;DHT22;16639;51.488;0.152;2023-07-28T01:54:50;18.80;99.90
29731;DHT22;16639;51.488;0.152;2023-07-28T01:57:17;18.80;99.90
29731;DHT22;16639;51.488;0.152;2023-07-28T01:59:45;18.80;99.90
29731;DHT22;16639;51.488;0.152;2023-07-28T02:02:12;18.80;99.90
29731;DHT22;16639;51.488;0.152;2023-07-28T02:04:40;18.70;99.90
29731;DHT22;16639;51.488;0.152;2023-07-28T02:07:09;18.70;99.90
29731;DHT22;16639;51.488;0.152;2023-07-28T02:09:36;18.60;99.90
29731;DHT22;16639;51.488;0.152;2023-07-28T02:12:04;18.60;99.90
29731;DHT22;16639;51.488;0.152;2023-07-28T02:14:31;18.60;99.90
29731;DHT22;16639;51.488;0.152;2023-07-28T02:16:59;18.60;99.90
29731;DHT22;16639;51.488;0.152;2023-07-28T02:19:26;18.60;99.90
29731;DHT22;16639;51.488;0.152;2023-07-28T02:21:54;18.60;99.90
29731;DHT22;16639;51.488;0.152;2023-07-28T02:24:21;18.60;99.90
29731;DHT22;16639;51.488;0.152;2023-07-28T02:26:49;18.60;99.90
29731;DHT22;16639;51.488;0.152;2023-07-28T02:29:16;18.60;99.90
29731;DHT22;16639;51.488;0.152;2023-07-28T02:31:44;18.60;99.90
29731;DHT22;16639;51.488;0.152;2023-07-28T02:34:11;18.50;99.90
29731;DHT22;16639;51.488;0.152;2023-07-28T02:36:39;18.60;99.90
29731;DHT22;16639;51.488;0.152;2023-07-28T02:39:06;18.60;99.90
29731;DHT22;16639;51.488;0.152;2023-07-28T02:41:33;18.60;99.90
29731;DHT22;16639;51.488;0.152;2023-07-28T02:44:01;18.60;99.90
29731;DHT22;16639;51.488;0.152;2023-07-28T02:46:28;18.60;99.90
29731;DHT22;16639;51.488;0.152;2023-07-28T02:48:56;18.60;99.90
29731;DHT22;16639;51.488;0.152;2023-07-28T02:51:23;18.60;99.90
29731;DHT22;16639;51.488;0.152;2023-07-28T02:53:51;18.60;99.90
29731;DHT22;16639;51.488;0.152;2023-07-28T02:56:18;18.50;99.90
29731;DHT22;16639;51.488;0.152;2023-07-28T02:58:48;18.60;99.90
29731;DHT22;16639;51.488;0.152;2023-07-28T03:01:16;18.60;99.90
29731;DHT22;16639;51.488;0.152;2023-07-28T03:03:47;18.60;99.90
29731;DHT22;16639;51.488;0.152;2023-07-28T03:06:15;18.60;99.90
29731;DHT22;16639;51.488;0.152;2023-07-28T03:08:42;18.60;99.90
29731;DHT22;16639;51.488;0.152;2023-07-28T03:11:10;18.50;99.90
29731;DHT22;16639;51.488;0.152;2023-07-28T03:13:37;18.60;99.90
29731;DHT22;16639;51.488;0.152;2023-07-28T03:16:05;18.50;99.90
29731;DHT22;16639;51.488;0.152;2023-07-28T03:18:32;18.50;99.90
29731;DHT22;16639;51.488;0.152;2023-07-28T03:21:00;18.50;99.90
29731;DHT22;16639;51.488;0.152;2023-07-28T03:23:27;18.50;99.90
29731;DHT22;16639;51.488;0.152;2023-07-28T03:25:55;18.50;99.90
29731;DHT22;16639;51.488;0.152;2023-07-28T03:28:22;18.50;99.90
29731;DHT22;16639;51.488;0.152;2023-07-28T03:30:49;18.50;99.90
29731;DHT22;16639;51.488;0.152;2023-07-28T03:33:17;18.50;99.90
29731;DHT22;16639;51.488;0.152;2023-07-28T03:35:44;18.40;99.90
29731;DHT22;16639;51.488;0.152;2023-07-28T03:38:12;18.30;99.90
29731;DHT22;16639;51.488;0.152;2023-07-28T03:40:40;18.40;99.90
29731;DHT22;16639;51.488;0.152;2023-07-28T03:43:07;18.40;99.90
29731;DHT22;16639;51.488;0.152;2023-07-28T03:45:35;18.40;99.90
29731;DHT22;16639;51.488;0.152;2023-07-28T03:48:02;18.40;99.90
29731;DHT22;16639;51.488;0.152;2023-07-28T03:50:30;18.40;99.90
29731;DHT22;16639;51.488;0.152;2023-07-28T03:52:57;18.40;99.90
29731;DHT22;16639;51.488;0.152;2023-07-28T03:55:25;18.40;99.90
29731;DHT22;16639;51.488;0.152;2023-07-28T03:57:53;18.40;99.90
29731;DHT22;16639;51.488;0.152;2023-07-28T04:00:20;18.40;99.90
29731;DHT22;16639;51.488;0.152;2023-07-28T04:02:49;18.30;99.90
29731;DHT22;16639;51.488;0.152;2023-07-28T04:05:16;18.40;99.90
29731;DHT22;16639;51.488;0.152;2023-07-28T04:07:44;18.30;99.90
29731;DHT22;16639;51.488;0.152;2023-07-28T04:10:11;18.30;99.90
29731;DHT22;16639;51.488;0.152;2023-07-28T04:12:39;18.30;99.90
29731;DHT22;16639;51.488;0.152;2023-07-28T04:15:07;18.30;99.90
29731;DHT22;16639;51.488;0.152;2023-07-28T04:17:34;18.30;99.90
29731;DHT22;16639;51.488;0.152;2023-07-28T04:20:02;18.30;99.90
29731;DHT22;16639;51.488;0.152;2023-07-28T04:22:30;18.20;99.90
29731;DHT22;16639;51.488;0.152;2023-07-28T04:24:57;18.20;99.90
29731;DHT22;16639;51.488;0.152;2023-07-28T04:27:24;18.20;99.90
29731;DHT22;16639;51.488;0.152;2023-07-28T04:29:52;18.20;99.90
29731;DHT22;16639;51.488;0.152;2023-07-28T04:32:19;18.30;99.90
29731;DHT22;16639;51.488;0.152;2023-07-28T04:34:47;18.30;99.90
29731;DHT22;16639;51.488;0.152;2023-07-28T04:37:14;18.30;99.90
29731;DHT22;16639;51.488;0.152;2023-07-28T04:39:42;18.20;99.90
29731;DHT22;16639;51.488;0.152;2023-07-28T04:42:09;18.30;99.90
29731;DHT22;16639;51.488;0.152;2023-07-28T04:44:38;18.30;99.90
29731;DHT22;16639;51.488;0.152;2023-07-28T04:47:07;18.30;99.90
29731;DHT22;16639;51.488;0.152;2023-07-28T04:49:34;18.30;99.90
29731;DHT22;16639;51.488;0.152;2023-07-28T04:52:01;18.30;99.90
29731;DHT22;16639;51.488;0.152;2023-07-28T04:54:30;18.30;99.90
29731;DHT22;16639;51.488;0.152;2023-07-28T04:56:57;18.30;99.90
29731;DHT22;16639;51.488;0.152;2023-07-28T04:59:25;18.20;99.90
29731;DHT22;16639;51.488;0.152;2023-07-28T05:01:52;18.20;99.90
29731;DHT22;16639;51.488;0.152;2023-07-28T05:04:19;18.20;99.90
29731;DHT22;16639;51.488;0.152;2023-07-28T05:06:47;18.20;99.90
29731;DHT22;16639;51.488;0.152;2023-07-28T05:09:14;18.20;99.90
29731;DHT22;16639;51.488;0.152;2023-07-28T05:11:42;18.20;99.90
29731;DHT22;16639;51.488;0.152;2023-07-28T05:14:10;18.20;99.90
29731;DHT22;16639;51.488;0.152;2023-07-28T05:16:38;18.20;99.90
29731;DHT22;16639;51.488;0.152;2023-07-28T05:19:06;18.20;99.90
29731;DHT22;16639;51.488;0.152;2023-07-28T05:21:34;18.20;99.90
29731;DHT22;16639;51.488;0.152;2023-07-28T05:24:02;18.20;99.90
29731;DHT22;16639;51.488;0.152;2023-07-28T05:26:30;18.20;99.90
29731;DHT22;16639;51.488;0.152;2023-07-28T05:28:57;18.20;99.90
29731;DHT22;16639;51.488;0.152;2023-07-28T05:31:25;18.20;99.90
29731;DHT22;16639;51.488;0.152;2023-07-28T05:33:52;17.90;99.90
29731;DHT22;16639;51.488;0.152;2023-07-28T05:36:21;18.20;99.90
29731;DHT22;16639;51.488;0.152;2023-07-28T05:38:48;18.20;99.90
29731;DHT22;16639;51.488;0.152;2023-07-28T05:41:17;18.20;99.90
29731;DHT22;16639;51.488;0.152;2023-07-28T05:43:44;18.10;99.90
29731;DHT22;16639;51.488;0.152;2023-07-28T05:46:12;18.20;99.90
29731;DHT22;16639;51.488;0.152;2023-07-28T05:48:40;18.30;99.90
29731;DHT22;16639;51.488;0.152;2023-07-28T05:51:07;18.30;99.90
29731;DHT22;16639;51.488;0.152;2023-07-28T05:53:34;18.30;99.90
29731;DHT22;16639;51.488;0.152;2023-07-28T05:56:02;18.30;99.90
29731;DHT22;16639;51.488;0.152;2023-07-28T05:58:29;18.40;99.90
29731;DHT22;16639;51.488;0.152;2023-07-28T06:00:57;18.30;99.90
29731;DHT22;16639;51.488;0.152;2023-07-28T06:03:25;18.30;99.90
29731;DHT22;16639;51.488;0.152;2023-07-28T06:05:53;18.30;99.90
29731;DHT22;16639;51.488;0.152;2023-07-28T06:08:20;18.30;99.90
29731;DHT22;16639;51.488;0.152;2023-07-28T06:10:50;18.30;99.90
29731;DHT22;16639;51.488;0.152;2023-07-28T06:13:18;18.30;99.90
29731;DHT22;16639;51.488;0.152;2023-07-28T06:15:46;18.30;99.90
29731;DHT22;16639;51.488;0.152;2023-07-28T06:18:14;18.30;99.90
29731;DHT22;16639;51.488;0.152;2023-07-28T06:20:42;18.30;99.90
29731;DHT22;16639;51.488;0.152;2023-07-28T06:23:10;18.30;99.90
29731;DHT22;16639;51.488;0.152;2023-07-28T06:25:37;18.40;99.90
29731;DHT22;16639;51.488;0.152;2023-07-28T06:28:11;18.40;99.90
29731;DHT22;16639;51.488;0.152;2023-07-28T06:30:39;18.30;99.90
29731;DHT22;16639;51.488;0.152;2023-07-28T06:33:07;18.40;99.90
29731;DHT22;16639;51.488;0.152;2023-07-28T06:35:35;18.40;99.90
29731;DHT22;16639;51.488;0.152;2023-07-28T06:38:03;18.40;99.90
29731;DHT22;16639;51.488;0.152;2023-07-28T06:40:30;18.40;99.90
29731;DHT22;16639;51.488;0.152;2023-07-28T06:42:58;18.30;99.90
29731;DHT22;16639;51.488;0.152;2023-07-28T06:45:26;18.30;99.90
29731;DHT22;16639;51.488;0.152;2023-07-28T06:47:54;18.30;99.90
29731;DHT22;16639;51.488;0.152;2023-07-28T06:50:21;18.30;99.90
29731;DHT22;16639;51.488;0.152;2023-07-28T06:52:49;18.20;99.90
29731;DHT22;16639;51.488;0.152;2023-07-28T06:55:17;18.30;99.90
29731;DHT22;16639;51.488;0.152;2023-07-28T06:57:44;18.30;99.90
29731;DHT22;16639;51.488;0.152;2023-07-28T07:00:12;18.30;99.90
29731;DHT22;16639;51.488;0.152;2023-07-28T07:02:41;18.30;99.90
29731;DHT22;16639;51.488;0.152;2023-07-28T07:05:09;18.40;99.90
29731;DHT22;16639;51.488;0.152;2023-07-28T07:07:36;18.50;99.90
29731;DHT22;16639;51.488;0.152;2023-07-28T07:10:04;18.50;99.90
29731;DHT22;16639;51.488;0.152;2023-07-28T07:12:33;18.60;99.90
29731;DHT22;16639;51.488;0.152;2023-07-28T07:15:01;18.70;99.90
29731;DHT22;16639;51.488;0.152;2023-07-28T07:17:28;18.70;99.90
29731;DHT22;16639;51.488;0.152;2023-07-28T07:19:56;18.80;99.90
29731;DHT22;16639;51.488;0.152;2023-07-28T07:22:23;18.80;99.90
29731;DHT22;16639;51.488;0.152;2023-07-28T07:24:51;18.80;99.90
29731;DHT22;16639;51.488;0.152;2023-07-28T07:27:18;18.90;99.90
29731;DHT22;16639;51.488;0.152;2023-07-28T07:29:46;19.00;99.90
29731;DHT22;16639;51.488;0.152;2023-07-28T07:32:13;19.00;99.90
29731;DHT22;16639;51.488;0.152;2023-07-28T07:34:43;19.00;99.90
29731;DHT22;16639;51.488;0.152;2023-07-28T07:37:12;19.10;99.90
29731;DHT22;16639;51.488;0.152;2023-07-28T07:39:39;19.20;99.90
29731;DHT22;16639;51.488;0.152;2023-07-28T07:42:09;19.20;99.90
29731;DHT22;16639;51.488;0.152;2023-07-28T07:44:38;19.20;99.90
29731;DHT22;16639;51.488;0.152;2023-07-28T07:47:13;19.20;99.90
29731;DHT22;16639;51.488;0.152;2023-07-28T07:49:44;19.10;99.90
29731;DHT22;16639;51.488;0.152;2023-07-28T07:52:12;19.10;99.90
29731;DHT22;16639;51.488;0.152;2023-07-28T07:54:40;19.10;99.90
29731;DHT22;16639;51.488;0.152;2023-07-28T07:57:07;19.10;99.90
29731;DHT22;16639;51.488;0.152;2023-07-28T07:59:35;19.20;99.90
29731;DHT22;16639;51.488;0.152;2023-07-28T08:02:03;19.20;99.90
29731;DHT22;16639;51.488;0.152;2023-07-28T08:04:31;19.20;99.90
29731;DHT22;16639;51.488;0.152;2023-07-28T08:06:59;18.70;99.90
29731;DHT22;16639;51.488;0.152;2023-07-28T08:09:26;19.30;99.90
29731;DHT22;16639;51.488;0.152;2023-07-28T08:11:56;19.30;99.90
29731;DHT22;16639;51.488;0.152;2023-07-28T08:14:23;19.60;99.90
29731;DHT22;16639;51.488;0.152;2023-07-28T08:16:51;19.20;99.90
29731;DHT22;16639;51.488;0.152;2023-07-28T08:19:18;19.40;99.90
29731;DHT22;16639;51.488;0.152;2023-07-28T08:21:46;19.40;99.90
29731;DHT22;16639;51.488;0.152;2023-07-28T08:24:13;19.40;99.90
29731;DHT22;16639;51.488;0.152;2023-07-28T08:26:41;19.50;99.90
29731;DHT22;16639;51.488;0.152;2023-07-28T08:29:08;19.50;99.90
29731;DHT22;16639;51.488;0.152;2023-07-28T08:31:36;19.50;99.90
29731;DHT22;16639;51.488;0.152;2023-07-28T08:34:04;19.50;99.90
29731;DHT22;16639;51.488;0.152;2023-07-28T08:36:31;19.50;99.90
29731;DHT22;16639;51.488;0.152;2023-07-28T08:38:59;19.60;99.90
29731;DHT22;16639;51.488;0.152;2023-07-28T08:41:27;19.60;99.90
29731;DHT22;16639;51.488;0.152;2023-07-28T08:43:54;19.60;99.90
29731;DHT22;16639;51.488;0.152;2023-07-28T08:46:22;19.60;99.90
29731;DHT22;16639;51.488;0.152;2023-07-28T08:48:50;19.50;99.90
29731;DHT22;16639;51.488;0.152;2023-07-28T08:51:22;19.40;99.90
29731;DHT22;16639;51.488;0.152;2023-07-28T08:53:50;19.40;99.90
29731;DHT22;16639;51.488;0.152;2023-07-28T08:56:18;19.40;99.90
29731;DHT22;16639;51.488;0.152;2023-07-28T08:58:46;19.40;99.90
29731;DHT22;16639;51.488;0.152;2023-07-28T09:01:13;19.40;99.90
29731;DHT22;16639;51.488;0.152;2023-07-28T09:03:41;19.40;99.90
29731;DHT22;16639;51.488;0.152;2023-07-28T09:06:09;19.40;99.90
29731;DHT22;16639;51.488;0.152;2023-07-28T09:08:36;20.80;99.90
29731;DHT22;16639;51.488;0.152;2023-07-28T09:11:05;19.60;99.90
29731;DHT22;16639;51.488;0.152;2023-07-28T09:13:41;20.40;99.90
29731;DHT22;16639;51.488;0.152;2023-07-28T09:16:20;19.70;99.90
29731;DHT22;16639;51.488;0.152;2023-07-28T09:18:48;19.70;99.90
29731;DHT22;16639;51.488;0.152;2023-07-28T09:21:20;19.70;99.90
29731;DHT22;16639;51.488;0.152;2023-07-28T09:23:49;19.80;99.90
29731;DHT22;16639;51.488;0.152;2023-07-28T09:26:16;19.80;99.90
29731;DHT22;16639;51.488;0.152;2023-07-28T09:28:44;19.80;99.90
29731;DHT22;16639;51.488;0.152;2023-07-28T09:31:12;19.90;99.90
29731;DHT22;16639;51.488;0.152;2023-07-28T09:33:39;20.00;99.90
29731;DHT22;16639;51.488;0.152;2023-07-28T09:36:11;20.10;99.90
29731;DHT22;16639;51.488;0.152;2023-07-28T09:38:41;20.20;99.90
29731;DHT22;16639;51.488;0.152;2023-07-28T09:41:10;20.20;99.90
29731;DHT22;16639;51.488;0.152;2023-07-28T09:43:40;20.20;99.90
29731;DHT22;16639;51.488;0.152;2023-07-28T09:46:09;20.20;99.90
29731;DHT22;16639;51.488;0.152;2023-07-28T09:48:45;20.10;99.90
29731;DHT22;16639;51.488;0.152;2023-07-28T09:51:17;20.10;99.90
29731;DHT22;16639;51.488;0.152;2023-07-28T09:53:58;20.10;99.90
29731;DHT22;16639;51.488;0.152;2023-07-28T09:56:30;20.10;99.90
29731;DHT22;16639;51.488;0.152;2023-07-28T09:59:00;20.80;99.90
29731;DHT22;16639;51.488;0.152;2023-07-28T10:01:28;20.10;99.90
29731;DHT22;16639;51.488;0.152;2023-07-28T10:03:58;20.10;99.90
29731;DHT22;16639;51.488;0.152;2023-07-28T10:06:29;20.10;99.90
29731;DHT22;16639;51.488;0.152;2023-07-28T10:08:57;20.10;99.90
29731;DHT22;16639;51.488;0.152;2023-07-28T10:11:25;20.20;99.90
29731;DHT22;16639;51.488;0.152;2023-07-28T10:13:54;20.20;99.90
29731;DHT22;16639;51.488;0.152;2023-07-28T10:16:39;20.20;99.90
29731;DHT22;16639;51.488;0.152;2023-07-28T10:19:09;20.30;99.90
29731;DHT22;16639;51.488;0.152;2023-07-28T10:21:40;20.40;99.90
29731;DHT22;16639;51.488;0.152;2023-07-28T10:24:09;20.50;99.90
29731;DHT22;16639;51.488;0.152;2023-07-28T10:26:38;20.50;99.90
29731;DHT22;16639;51.488;0.152;2023-07-28T10:29:12;20.50;99.90
29731;DHT22;16639;51.488;0.152;2023-07-28T10:31:55;20.50;99.90
29731;DHT22;16639;51.488;0.152;2023-07-28T10:34:28;20.40;99.90
29731;DHT22;16639;51.488;0.152;2023-07-28T10:37:00;20.40;99.90
29731;DHT22;16639;51.488;0.152;2023-07-28T10:39:27;20.30;99.90
29731;DHT22;16639;51.488;0.152;2023-07-28T10:42:05;20.40;99.90
29731;DHT22;16639;51.488;0.152;2023-07-28T10:44:33;20.50;99.90
29731;DHT22;16639;51.488;0.152;2023-07-28T10:47:01;20.50;99.90
29731;DHT22;16639;51.488;0.152;2023-07-28T10:49:29;20.50;99.90
29731;DHT22;16639;51.488;0.152;2023-07-28T10:51:56;20.50;99.90
29731;DHT22;16639;51.488;0.152;2023-07-28T10:54:24;20.50;99.90
29731;DHT22;16639;51.488;0.152;2023-07-28T10:56:52;20.50;99.90
29731;DHT22;16639;51.488;0.152;2023-07-28T10:59:19;20.50;99.90
29731;DHT22;16639;51.488;0.152;2023-07-28T11:01:48;20.60;99.90
29731;DHT22;16639;51.488;0.152;2023-07-28T11:04:17;20.60;99.90
29731;DHT22;16639;51.488;0.152;2023-07-28T11:06:47;20.60;99.90
29731;DHT22;16639;51.488;0.152;2023-07-28T11:09:17;20.50;99.90
29731;DHT22;16639;51.488;0.152;2023-07-28T11:11:45;20.80;99.90
29731;DHT22;16639;51.488;0.152;2023-07-28T11:14:15;20.50;99.90
29731;DHT22;16639;51.488;0.152;2023-07-28T11:16:46;20.50;99.90
29731;DHT22;16639;51.488;0.152;2023-07-28T11:19:16;20.60;99.90
29731;DHT22;16639;51.488;0.152;2023-07-28T11:21:45;20.70;99.90
29731;DHT22;16639;51.488;0.152;2023-07-28T11:24:21;20.80;99.90
29731;DHT22;16639;51.488;0.152;2023-07-28T11:26:51;20.90;99.90
29731;DHT22;16639;51.488;0.152;2023-07-28T11:29:20;20.90;99.90
29731;DHT22;16639;51.488;0.152;2023-07-28T11:31:48;20.90;99.90
29731;DHT22;16639;51.488;0.152;2023-07-28T11:34:19;20.70;99.90
29731;DHT22;16639;51.488;0.152;2023-07-28T11:36:47;20.70;99.90
29731;DHT22;16639;51.488;0.152;2023-07-28T11:39:16;20.60;99.90
29731;DHT22;16639;51.488;0.152;2023-07-28T11:41:44;20.60;99.90
29731;DHT22;16639;51.488;0.152;2023-07-28T11:44:15;20.50;99.90
29731;DHT22;16639;51.488;0.152;2023-07-28T11:46:43;20.60;99.90
29731;DHT22;16639;51.488;0.152;2023-07-28T11:49:16;20.50;99.90
29731;DHT22;16639;51.488;0.152;2023-07-28T11:51:47;20.50;99.90
29731;DHT22;16639;51.488;0.152;2023-07-28T11:54:17;20.40;99.90
29731;DHT22;16639;51.488;0.152;2023-07-28T11:56:50;20.30;99.90
29731;DHT22;16639;51.488;0.152;2023-07-28T11:59:19;20.30;99.90
29731;DHT22;16639;51.488;0.152;2023-07-28T12:01:58;20.20;99.90
29731;DHT22;16639;51.488;0.152;2023-07-28T12:04:37;20.10;99.90
29731;DHT22;16639;51.488;0.152;2023-07-28T12:07:12;20.10;99.90
29731;DHT22;16639;51.488;0.152;2023-07-28T12:12:13;20.10;99.90
29731;DHT22;16639;51.488;0.152;2023-07-28T12:14:51;20.00;99.90
29731;DHT22;16639;51.488;0.152;2023-07-28T12:17:39;20.00;99.90
29731;DHT22;16639;51.488;0.152;2023-07-28T12:20:10;20.00;99.90
29731;DHT22;16639;51.488;0.152;2023-07-28T12:22:40;20.10;99.90
29731;DHT22;16639;51.488;0.152;2023-07-28T12:25:09;20.20;99.90
29731;DHT22;16639;51.488;0.152;2023-07-28T12:27:37;20.30;99.90
29731;DHT22;16639;51.488;0.152;2023-07-28T12:30:05;20.50;99.90
29731;DHT22;16639;51.488;0.152;2023-07-28T12:32:39;20.70;99.90
29731;DHT22;16639;51.488;0.152;2023-07-28T12:35:28;21.00;99.90
29731;DHT22;16639;51.488;0.152;2023-07-28T12:38:04;20.90;99.90
29731;DHT22;16639;51.488;0.152;2023-07-28T12:40:35;21.00;99.90
29731;DHT22;16639;51.488;0.152;2023-07-28T12:43:05;21.30;99.90
29731;DHT22;16639;51.488;0.152;2023-07-28T12:45:34;21.40;99.90
29731;DHT22;16639;51.488;0.152;2023-07-28T12:48:04;21.50;99.90
29731;DHT22;16639;51.488;0.152;2023-07-28T12:50:32;21.60;99.90
29731;DHT22;16639;51.488;0.152;2023-07-28T12:53:02;21.80;99.90
29731;DHT22;16639;51.488;0.152;2023-07-28T12:55:42;21.70;99.90
29731;DHT22;16639;51.488;0.152;2023-07-28T12:58:12;21.70;99.90
29731;DHT22;16639;51.488;0.152;2023-07-28T13:00:43;21.60;99.90
29731;DHT22;16639;51.488;0.152;2023-07-28T13:03:13;21.50;99.90
29731;DHT22;16639;51.488;0.152;2023-07-28T13:05:41;21.50;99.90
29731;DHT22;16639;51.488;0.152;2023-07-28T13:08:11;21.40;99.90
29731;DHT22;16639;51.488;0.152;2023-07-28T13:10:38;21.30;99.90
29731;DHT22;16639;51.488;0.152;2023-07-28T13:13:09;21.30;99.90
29731;DHT22;16639;51.488;0.152;2023-07-28T13:15:41;21.30;99.90
29731;DHT22;16639;51.488;0.152;2023-07-28T13:18:09;21.40;99.90
29731;DHT22;16639;51.488;0.152;2023-07-28T13:20:37;21.30;99.90
29731;DHT22;16639;51.488;0.152;2023-07-28T13:23:05;21.30;99.90
29731;DHT22;16639;51.488;0.152;2023-07-28T13:25:32;21.30;99.90
29731;DHT22;16639;51.488;0.152;2023-07-28T13:27:59;21.20;99.90
29731;DHT22;16639;51.488;0.152;2023-07-28T13:30:27;21.20;99.90
29731;DHT22;16639;51.488;0.152;2023-07-28T13:32:56;21.30;99.90
29731;DHT22;16639;51.488;0.152;2023-07-28T13:35:24;21.30;99.90
29731;DHT22;16639;51.488;0.152;2023-07-28T13:37:52;21.40;99.90
29731;DHT22;16639;51.488;0.152;2023-07-28T13:40:20;21.30;99.90
29731;DHT22;16639;51.488;0.152;2023-07-28T13:42:47;21.30;99.90
29731;DHT22;16639;51.488;0.152;2023-07-28T13:45:15;21.30;99.90
29731;DHT22;16639;51.488;0.152;2023-07-28T13:47:42;21.30;99.90
29731;DHT22;16639;51.488;0.152;2023-07-28T13:50:11;21.30;99.90
29731;DHT22;16639;51.488;0.152;2023-07-28T13:52:38;21.40;99.90
29731;DHT22;16639;51.488;0.152;2023-07-28T13:55:06;21.50;99.90
29731;DHT22;16639;51.488;0.152;2023-07-28T13:57:37;21.60;99.90
29731;DHT22;16639;51.488;0.152;2023-07-28T14:00:07;21.70;99.90
29731;DHT22;16639;51.488;0.152;2023-07-28T14:02:37;21.80;99.90
29731;DHT22;16639;51.488;0.152;2023-07-28T14:05:07;21.90;99.90
29731;DHT22;16639;51.488;0.152;2023-07-28T14:07:35;21.80;99.90
29731;DHT22;16639;51.488;0.152;2023-07-28T14:10:02;21.80;99.90
29731;DHT22;16639;51.488;0.152;2023-07-28T14:12:33;21.80;99.90
29731;DHT22;16639;51.488;0.152;2023-07-28T14:15:01;21.80;99.90
29731;DHT22;16639;51.488;0.152;2023-07-28T14:17:29;21.90;99.90
29731;DHT22;16639;51.488;0.152;2023-07-28T14:19:57;21.90;99.90
29731;DHT22;16639;51.488;0.152;2023-07-28T14:22:24;21.90;99.90
29731;DHT22;16639;51.488;0.152;2023-07-28T14:24:52;21.90;99.90
29731;DHT22;16639;51.488;0.152;2023-07-28T14:27:19;22.00;99.90
29731;DHT22;16639;51.488;0.152;2023-07-28T14:29:47;22.10;99.90
29731;DHT22;16639;51.488;0.152;2023-07-28T14:32:14;21.80;99.90
29731;DHT22;16639;51.488;0.152;2023-07-28T14:34:42;22.20;99.90
29731;DHT22;16639;51.488;0.152;2023-07-28T14:37:10;22.40;99.90
29731;DHT22;16639;51.488;0.152;2023-07-28T14:39:38;22.60;99.90
29731;DHT22;16639;51.488;0.152;2023-07-28T14:42:07;22.50;99.90
29731;DHT22;16639;51.488;0.152;2023-07-28T14:44:36;22.50;99.90
29731;DHT22;16639;51.488;0.152;2023-07-28T14:47:06;22.40;99.90
29731;DHT22;16639;51.488;0.152;2023-07-28T14:49:34;22.40;99.90
29731;DHT22;16639;51.488;0.152;2023-07-28T14:52:01;22.30;99.90
29731;DHT22;16639;51.488;0.152;2023-07-28T14:54:28;22.30;99.90
29731;DHT22;16639;51.488;0.152;2023-07-28T14:56:56;22.30;99.90
29731;DHT22;16639;51.488;0.152;2023-07-28T14:59:23;22.30;99.90
29731;DHT22;16639;51.488;0.152;2023-07-28T15:01:51;22.20;99.90
29731;DHT22;16639;51.488;0.152;2023-07-28T15:04:19;22.30;99.90
29731;DHT22;16639;51.488;0.152;2023-07-28T15:06:46;22.40;99.90
29731;DHT22;16639;51.488;0.152;2023-07-28T15:09:14;22.50;99.90
29731;DHT22;16639;51.488;0.152;2023-07-28T15:11:45;22.60;99.90
29731;DHT22;16639;51.488;0.152;2023-07-28T15:14:13;22.40;99.90
29731;DHT22;16639;51.488;0.152;2023-07-28T15:16:41;22.40;99.90
29731;DHT22;16639;51.488;0.152;2023-07-28T15:19:08;22.40;99.90
29731;DHT22;16639;51.488;0.152;2023-07-28T15:21:36;22.40;99.90
29731;DHT22;16639;51.488;0.152;2023-07-28T15:24:04;22.50;99.90
29731;DHT22;16639;51.488;0.152;2023-07-28T15:26:31;22.60;99.90
29731;DHT22;16639;51.488;0.152;2023-07-28T15:29:02;22.70;99.90
29731;DHT22;16639;51.488;0.152;2023-07-28T15:31:30;22.70;99.90
29731;DHT22;16639;51.488;0.152;2023-07-28T15:33:58;22.60;99.90
29731;DHT22;16639;51.488;0.152;2023-07-28T15:36:25;22.60;99.90
29731;DHT22;16639;51.488;0.152;2023-07-28T15:38:52;22.70;99.90
29731;DHT22;16639;51.488;0.152;2023-07-28T15:41:20;22.80;99.90
29731;DHT22;16639;51.488;0.152;2023-07-28T15:43:47;22.80;99.90
29731;DHT22;16639;51.488;0.152;2023-07-28T15:46:15;22.80;99.90